sensor_id;sensor_type;location;lat;lon;timestamp;P1;durP1;ratioP1;P2;durP2;ratioP2
10319;SDS011;5205;52.168;5.420;2023-12-14T00:00:54;13.43;;;6.68;;
10319;SDS011;5205;52.168;5.420;2023-12-14T00:05:47;13.00;;;6.43;;
10319;SDS011;5205;52.168;5.420;2023-12-14T00:08:15;18.58;;;7.38;;
10319;SDS011;5205;52.168;5.420;2023-12-14T00:13:09;10.80;;;5.53;;
10319;SDS011;5205;52.168;5.420;2023-12-14T00:18:04;11.30;;;6.20;;
10319;SDS011;5205;52.168;5.420;2023-12-14T00:20:31;10.38;;;5.82;;
10319;SDS011;5205;52.168;5.420;2023-12-14T00:25:25;15.50;;;6.25;;
10319;SDS011;5205;52.168;5.420;2023-12-14T00:27:52;12.07;;;6.35;;
10319;SDS011;5205;52.168;5.420;2023-12-14T00:32:46;10.98;;;5.60;;
10319;SDS011;5205;52.168;5.420;2023-12-14T00:37:42;10.23;;;5.47;;
10319;SDS011;5205;52.168;5.420;2023-12-14T00:40:09;10.75;;;6.45;;
10319;SDS011;5205;52.168;5.420;2023-12-14T00:42:36;11.80;;;5.72;;
10319;SDS011;5205;52.168;5.420;2023-12-14T00:47:30;8.63;;;4.88;;
10319;SDS011;5205;52.168;5.420;2023-12-14T00:52:24;13.00;;;6.75;;
10319;SDS011;5205;52.168;5.420;2023-12-14T00:57:19;11.95;;;6.15;;
10319;SDS011;5205;52.168;5.420;2023-12-14T00:59:47;13.70;;;6.57;;
10319;SDS011;5205;52.168;5.420;2023-12-14T01:04:40;13.18;;;6.07;;
10319;SDS011;5205;52.168;5.420;2023-12-14T01:07:08;11.63;;;6.13;;
10319;SDS011;5205;52.168;5.420;2023-12-14T01:09:35;11.93;;;6.10;;
10319;SDS011;5205;52.168;5.420;2023-12-14T01:12:02;9.98;;;5.60;;
10319;SDS011;5205;52.168;5.420;2023-12-14T01:14:31;12.40;;;6.10;;
10319;SDS011;5205;52.168;5.420;2023-12-14T01:16:58;11.55;;;5.80;;
10319;SDS011;5205;52.168;5.420;2023-12-14T01:21:52;12.38;;;5.97;;
10319;SDS011;5205;52.168;5.420;2023-12-14T01:24:20;8.85;;;5.25;;
10319;SDS011;5205;52.168;5.420;2023-12-14T01:29:14;12.35;;;5.50;;
10319;SDS011;5205;52.168;5.420;2023-12-14T01:34:09;9.25;;;5.63;;
10319;SDS011;5205;52.168;5.420;2023-12-14T01:36:37;14.55;;;6.75;;
10319;SDS011;5205;52.168;5.420;2023-12-14T01:41:31;10.63;;;6.03;;
10319;SDS011;5205;52.168;5.420;2023-12-14T01:46:25;12.45;;;6.38;;
10319;SDS011;5205;52.168;5.420;2023-12-14T01:51:20;12.70;;;6.45;;
10319;SDS011;5205;52.168;5.420;2023-12-14T01:53:47;11.48;;;6.35;;
10319;SDS011;5205;52.168;5.420;2023-12-14T01:58:41;11.93;;;6.53;;
10319;SDS011;5205;52.168;5.420;2023-12-14T02:01:11;10.77;;;5.60;;
10319;SDS011;5205;52.168;5.420;2023-12-14T02:03:43;10.93;;;6.32;;
10319;SDS011;5205;52.168;5.420;2023-12-14T02:06:11;11.50;;;5.88;;
10319;SDS011;5205;52.168;5.420;2023-12-14T02:08:39;9.95;;;5.82;;
10319;SDS011;5205;52.168;5.420;2023-12-14T02:11:06;11.25;;;5.47;;
10319;SDS011;5205;52.168;5.420;2023-12-14T02:13:33;11.80;;;7.22;;
10319;SDS011;5205;52.168;5.420;2023-12-14T02:16:00;11.45;;;6.65;;
10319;SDS011;5205;52.168;5.420;2023-12-14T02:20:54;12.27;;;6.60;;
10319;SDS011;5205;52.168;5.420;2023-12-14T02:23:23;8.70;;;5.03;;
10319;SDS011;5205;52.168;5.420;2023-12-14T02:25:50;11.40;;;6.30;;
10319;SDS011;5205;52.168;5.420;2023-12-14T02:30:44;9.18;;;5.15;;
10319;SDS011;5205;52.168;5.420;2023-12-14T02:35:38;12.02;;;6.35;;
10319;SDS011;5205;52.168;5.420;2023-12-14T02:38:05;12.25;;;7.07;;
10319;SDS011;5205;52.168;5.420;2023-12-14T02:43:00;9.95;;;5.15;;
10319;SDS011;5205;52.168;5.420;2023-12-14T02:45:27;9.70;;;5.75;;
10319;SDS011;5205;52.168;5.420;2023-12-14T02:50:21;12.75;;;7.20;;
10319;SDS011;5205;52.168;5.420;2023-12-14T02:52:48;10.43;;;6.75;;
10319;SDS011;5205;52.168;5.420;2023-12-14T02:57:42;9.00;;;5.25;;
10319;SDS011;5205;52.168;5.420;2023-12-14T03:00:12;12.70;;;6.75;;
10319;SDS011;5205;52.168;5.420;2023-12-14T03:02:39;11.15;;;6.25;;
10319;SDS011;5205;52.168;5.420;2023-12-14T03:07:33;10.80;;;6.20;;
10319;SDS011;5205;52.168;5.420;2023-12-14T03:12:27;12.98;;;6.15;;
10319;SDS011;5205;52.168;5.420;2023-12-14T03:14:54;11.88;;;6.30;;
10319;SDS011;5205;52.168;5.420;2023-12-14T03:17:23;9.98;;;6.28;;
10319;SDS011;5205;52.168;5.420;2023-12-14T03:19:50;13.60;;;7.25;;
10319;SDS011;5205;52.168;5.420;2023-12-14T03:24:44;11.40;;;6.20;;
10319;SDS011;5205;52.168;5.420;2023-12-14T03:29:39;14.73;;;6.32;;
10319;SDS011;5205;52.168;5.420;2023-12-14T03:34:34;12.73;;;6.40;;
10319;SDS011;5205;52.168;5.420;2023-12-14T03:37:01;12.57;;;6.70;;
10319;SDS011;5205;52.168;5.420;2023-12-14T03:39:29;16.23;;;7.53;;
10319;SDS011;5205;52.168;5.420;2023-12-14T03:44:23;13.30;;;7.07;;
10319;SDS011;5205;52.168;5.420;2023-12-14T03:46:50;14.90;;;6.53;;
10319;SDS011;5205;52.168;5.420;2023-12-14T03:49:19;14.13;;;6.88;;
10319;SDS011;5205;52.168;5.420;2023-12-14T03:54:14;17.98;;;7.68;;
10319;SDS011;5205;52.168;5.420;2023-12-14T03:56:41;17.90;;;7.95;;
10319;SDS011;5205;52.168;5.420;2023-12-14T03:59:09;16.40;;;7.68;;
10319;SDS011;5205;52.168;5.420;2023-12-14T04:01:36;15.93;;;7.10;;
10319;SDS011;5205;52.168;5.420;2023-12-14T04:04:04;16.30;;;7.85;;
10319;SDS011;5205;52.168;5.420;2023-12-14T04:06:32;14.90;;;6.53;;
10319;SDS011;5205;52.168;5.420;2023-12-14T04:11:27;11.93;;;6.63;;
10319;SDS011;5205;52.168;5.420;2023-12-14T04:13:55;12.77;;;5.90;;
10319;SDS011;5205;52.168;5.420;2023-12-14T04:16:22;12.60;;;6.28;;
10319;SDS011;5205;52.168;5.420;2023-12-14T04:18:49;13.43;;;6.20;;
10319;SDS011;5205;52.168;5.420;2023-12-14T04:23:43;12.63;;;6.32;;
10319;SDS011;5205;52.168;5.420;2023-12-14T04:26:10;13.73;;;6.75;;
10319;SDS011;5205;52.168;5.420;2023-12-14T04:28:40;14.32;;;6.38;;
10319;SDS011;5205;52.168;5.420;2023-12-14T04:31:11;12.50;;;6.20;;
10319;SDS011;5205;52.168;5.420;2023-12-14T04:33:38;11.25;;;6.13;;
10319;SDS011;5205;52.168;5.420;2023-12-14T04:38:32;9.63;;;5.78;;
10319;SDS011;5205;52.168;5.420;2023-12-14T04:40:59;11.50;;;5.63;;
10319;SDS011;5205;52.168;5.420;2023-12-14T04:43:26;10.02;;;5.97;;
10319;SDS011;5205;52.168;5.420;2023-12-14T04:45:56;13.70;;;5.55;;
10319;SDS011;5205;52.168;5.420;2023-12-14T04:48:24;8.95;;;5.13;;
10319;SDS011;5205;52.168;5.420;2023-12-14T04:53:17;11.48;;;5.65;;
10319;SDS011;5205;52.168;5.420;2023-12-14T04:58:11;12.25;;;5.90;;
10319;SDS011;5205;52.168;5.420;2023-12-14T05:00:39;9.20;;;5.38;;
10319;SDS011;5205;52.168;5.420;2023-12-14T05:05:34;11.40;;;5.85;;
10319;SDS011;5205;52.168;5.420;2023-12-14T05:08:01;12.65;;;6.40;;
10319;SDS011;5205;52.168;5.420;2023-12-14T05:10:28;11.98;;;5.88;;
10319;SDS011;5205;52.168;5.420;2023-12-14T05:12:55;10.55;;;5.00;;
10319;SDS011;5205;52.168;5.420;2023-12-14T05:17:49;9.27;;;5.35;;
10319;SDS011;5205;52.168;5.420;2023-12-14T05:22:44;7.60;;;4.60;;
10319;SDS011;5205;52.168;5.420;2023-12-14T05:25:11;11.07;;;5.38;;
10319;SDS011;5205;52.168;5.420;2023-12-14T05:27:39;12.15;;;5.63;;
10319;SDS011;5205;52.168;5.420;2023-12-14T05:32:33;13.45;;;6.82;;
10319;SDS011;5205;52.168;5.420;2023-12-14T05:35:00;13.52;;;6.28;;
10319;SDS011;5205;52.168;5.420;2023-12-14T05:39:56;11.35;;;5.05;;
10319;SDS011;5205;52.168;5.420;2023-12-14T05:42:23;10.52;;;5.78;;
10319;SDS011;5205;52.168;5.420;2023-12-14T05:47:17;13.25;;;5.72;;
10319;SDS011;5205;52.168;5.420;2023-12-14T05:49:44;10.32;;;5.32;;
10319;SDS011;5205;52.168;5.420;2023-12-14T05:54:38;9.65;;;5.35;;
10319;SDS011;5205;52.168;5.420;2023-12-14T05:57:07;11.32;;;5.30;;
10319;SDS011;5205;52.168;5.420;2023-12-14T05:59:34;10.55;;;5.28;;
10319;SDS011;5205;52.168;5.420;2023-12-14T06:02:01;10.20;;;5.53;;
10319;SDS011;5205;52.168;5.420;2023-12-14T06:04:28;14.05;;;4.95;;
10319;SDS011;5205;52.168;5.420;2023-12-14T06:09:22;9.90;;;5.10;;
10319;SDS011;5205;52.168;5.420;2023-12-14T06:11:57;9.35;;;5.47;;
10319;SDS011;5205;52.168;5.420;2023-12-14T06:14:25;10.98;;;5.90;;
10319;SDS011;5205;52.168;5.420;2023-12-14T06:16:52;10.52;;;4.32;;
10319;SDS011;5205;52.168;5.420;2023-12-14T06:19:19;8.27;;;4.18;;
10319;SDS011;5205;52.168;5.420;2023-12-14T06:21:47;6.95;;;4.03;;
10319;SDS011;5205;52.168;5.420;2023-12-14T06:24:14;7.72;;;4.60;;
10319;SDS011;5205;52.168;5.420;2023-12-14T06:26:41;6.80;;;3.88;;
10319;SDS011;5205;52.168;5.420;2023-12-14T06:29:08;12.60;;;5.35;;
10319;SDS011;5205;52.168;5.420;2023-12-14T06:31:37;9.65;;;4.60;;
10319;SDS011;5205;52.168;5.420;2023-12-14T06:34:04;7.75;;;4.97;;
10319;SDS011;5205;52.168;5.420;2023-12-14T06:36:32;10.43;;;4.65;;
10319;SDS011;5205;52.168;5.420;2023-12-14T06:39:00;9.02;;;4.43;;
10319;SDS011;5205;52.168;5.420;2023-12-14T06:41:28;9.32;;;4.95;;
10319;SDS011;5205;52.168;5.420;2023-12-14T06:43:55;9.85;;;5.50;;
10319;SDS011;5205;52.168;5.420;2023-12-14T06:48:50;9.02;;;4.85;;
10319;SDS011;5205;52.168;5.420;2023-12-14T06:51:18;10.15;;;5.57;;
10319;SDS011;5205;52.168;5.420;2023-12-14T06:53:45;8.60;;;5.10;;
10319;SDS011;5205;52.168;5.420;2023-12-14T06:56:13;8.88;;;4.85;;
10319;SDS011;5205;52.168;5.420;2023-12-14T07:01:07;9.93;;;4.63;;
10319;SDS011;5205;52.168;5.420;2023-12-14T07:03:34;8.98;;;4.32;;
10319;SDS011;5205;52.168;5.420;2023-12-14T07:06:03;6.82;;;4.05;;
10319;SDS011;5205;52.168;5.420;2023-12-14T07:08:30;8.27;;;3.85;;
10319;SDS011;5205;52.168;5.420;2023-12-14T07:10:57;7.53;;;4.28;;
10319;SDS011;5205;52.168;5.420;2023-12-14T07:13:24;8.18;;;4.28;;
10319;SDS011;5205;52.168;5.420;2023-12-14T07:18:18;9.75;;;4.45;;
10319;SDS011;5205;52.168;5.420;2023-12-14T07:23:14;6.88;;;3.90;;
10319;SDS011;5205;52.168;5.420;2023-12-14T07:25:41;7.38;;;4.10;;
10319;SDS011;5205;52.168;5.420;2023-12-14T07:28:08;8.38;;;4.93;;
10319;SDS011;5205;52.168;5.420;2023-12-14T07:30:35;10.65;;;6.60;;
10319;SDS011;5205;52.168;5.420;2023-12-14T07:35:29;6.82;;;4.32;;
10319;SDS011;5205;52.168;5.420;2023-12-14T07:40:25;7.15;;;4.15;;
10319;SDS011;5205;52.168;5.420;2023-12-14T07:42:52;7.95;;;4.10;;
10319;SDS011;5205;52.168;5.420;2023-12-14T07:47:46;7.78;;;4.38;;
10319;SDS011;5205;52.168;5.420;2023-12-14T07:50:13;7.30;;;4.38;;
10319;SDS011;5205;52.168;5.420;2023-12-14T07:52:40;10.95;;;5.05;;
10319;SDS011;5205;52.168;5.420;2023-12-14T07:57:36;8.15;;;4.15;;
10319;SDS011;5205;52.168;5.420;2023-12-14T08:00:03;8.50;;;4.57;;
10319;SDS011;5205;52.168;5.420;2023-12-14T08:02:31;8.63;;;4.68;;
10319;SDS011;5205;52.168;5.420;2023-12-14T08:07:24;9.10;;;5.22;;
10319;SDS011;5205;52.168;5.420;2023-12-14T08:09:54;6.95;;;4.40;;
10319;SDS011;5205;52.168;5.420;2023-12-14T08:12:21;8.60;;;4.88;;
10319;SDS011;5205;52.168;5.420;2023-12-14T08:17:16;6.90;;;4.00;;
10319;SDS011;5205;52.168;5.420;2023-12-14T08:19:43;9.25;;;5.68;;
10319;SDS011;5205;52.168;5.420;2023-12-14T08:24:37;11.90;;;4.63;;
10319;SDS011;5205;52.168;5.420;2023-12-14T08:27:05;8.43;;;4.28;;
10319;SDS011;5205;52.168;5.420;2023-12-14T08:31:59;7.72;;;4.35;;
10319;SDS011;5205;52.168;5.420;2023-12-14T08:36:54;10.80;;;4.53;;
10319;SDS011;5205;52.168;5.420;2023-12-14T08:39:21;9.30;;;4.93;;
10319;SDS011;5205;52.168;5.420;2023-12-14T08:41:51;5.80;;;3.72;;
10319;SDS011;5205;52.168;5.420;2023-12-14T08:44:19;6.32;;;3.88;;
10319;SDS011;5205;52.168;5.420;2023-12-14T08:49:13;10.35;;;4.32;;
10319;SDS011;5205;52.168;5.420;2023-12-14T08:51:41;9.35;;;4.78;;
10319;SDS011;5205;52.168;5.420;2023-12-14T08:54:10;9.43;;;5.20;;
10319;SDS011;5205;52.168;5.420;2023-12-14T08:56:37;7.82;;;4.60;;
10319;SDS011;5205;52.168;5.420;2023-12-14T08:59:04;8.10;;;4.97;;
10319;SDS011;5205;52.168;5.420;2023-12-14T09:01:32;9.23;;;4.57;;
10319;SDS011;5205;52.168;5.420;2023-12-14T09:06:26;8.35;;;4.47;;
10319;SDS011;5205;52.168;5.420;2023-12-14T09:11:21;9.45;;;4.38;;
10319;SDS011;5205;52.168;5.420;2023-12-14T09:13:48;8.88;;;4.80;;
10319;SDS011;5205;52.168;5.420;2023-12-14T09:16:16;8.27;;;4.50;;
10319;SDS011;5205;52.168;5.420;2023-12-14T09:21:10;9.32;;;4.00;;
10319;SDS011;5205;52.168;5.420;2023-12-14T09:26:05;7.60;;;4.70;;
10319;SDS011;5205;52.168;5.420;2023-12-14T09:28:34;10.70;;;5.93;;
10319;SDS011;5205;52.168;5.420;2023-12-14T09:31:01;9.15;;;5.00;;
10319;SDS011;5205;52.168;5.420;2023-12-14T09:33:29;10.52;;;4.40;;
10319;SDS011;5205;52.168;5.420;2023-12-14T09:38:23;9.00;;;5.05;;
10319;SDS011;5205;52.168;5.420;2023-12-14T09:43:16;8.07;;;4.40;;
10319;SDS011;5205;52.168;5.420;2023-12-14T09:45:45;7.45;;;3.80;;
10319;SDS011;5205;52.168;5.420;2023-12-14T09:48:13;8.20;;;4.47;;
10319;SDS011;5205;52.168;5.420;2023-12-14T09:50:40;8.52;;;4.18;;
10319;SDS011;5205;52.168;5.420;2023-12-14T09:53:08;6.03;;;3.75;;
10319;SDS011;5205;52.168;5.420;2023-12-14T09:55:35;6.75;;;3.95;;
10319;SDS011;5205;52.168;5.420;2023-12-14T09:58:02;8.27;;;4.45;;
10319;SDS011;5205;52.168;5.420;2023-12-14T10:00:34;7.20;;;4.28;;
10319;SDS011;5205;52.168;5.420;2023-12-14T10:03:19;9.38;;;4.43;;
10319;SDS011;5205;52.168;5.420;2023-12-14T10:05:46;10.55;;;4.53;;
10319;SDS011;5205;52.168;5.420;2023-12-14T10:08:14;8.65;;;4.85;;
10319;SDS011;5205;52.168;5.420;2023-12-14T10:10:41;13.02;;;5.32;;
10319;SDS011;5205;52.168;5.420;2023-12-14T10:13:08;10.15;;;4.75;;
10319;SDS011;5205;52.168;5.420;2023-12-14T10:15:42;9.38;;;4.20;;
10319;SDS011;5205;52.168;5.420;2023-12-14T10:18:09;8.50;;;4.25;;
10319;SDS011;5205;52.168;5.420;2023-12-14T10:23:05;9.45;;;4.20;;
10319;SDS011;5205;52.168;5.420;2023-12-14T10:25:32;7.85;;;4.40;;
10319;SDS011;5205;52.168;5.420;2023-12-14T10:28:00;9.45;;;4.60;;
10319;SDS011;5205;52.168;5.420;2023-12-14T10:30:28;8.13;;;4.07;;
10319;SDS011;5205;52.168;5.420;2023-12-14T10:32:56;8.68;;;4.25;;
10319;SDS011;5205;52.168;5.420;2023-12-14T10:35:23;9.10;;;3.72;;
10319;SDS011;5205;52.168;5.420;2023-12-14T10:37:51;7.05;;;4.15;;
10319;SDS011;5205;52.168;5.420;2023-12-14T10:40:20;7.70;;;3.95;;
10319;SDS011;5205;52.168;5.420;2023-12-14T10:42:47;6.97;;;3.58;;
10319;SDS011;5205;52.168;5.420;2023-12-14T10:45:16;6.93;;;3.83;;
10319;SDS011;5205;52.168;5.420;2023-12-14T10:47:45;8.23;;;4.40;;
10319;SDS011;5205;52.168;5.420;2023-12-14T10:50:13;8.73;;;4.25;;
10319;SDS011;5205;52.168;5.420;2023-12-14T10:52:40;8.48;;;4.35;;
10319;SDS011;5205;52.168;5.420;2023-12-14T10:55:09;10.40;;;4.50;;
10319;SDS011;5205;52.168;5.420;2023-12-14T10:57:38;9.15;;;4.50;;
10319;SDS011;5205;52.168;5.420;2023-12-14T11:00:06;7.25;;;3.97;;
10319;SDS011;5205;52.168;5.420;2023-12-14T11:02:39;8.55;;;4.68;;
10319;SDS011;5205;52.168;5.420;2023-12-14T11:05:09;8.30;;;4.05;;
10319;SDS011;5205;52.168;5.420;2023-12-14T11:07:44;7.72;;;4.32;;
10319;SDS011;5205;52.168;5.420;2023-12-14T11:10:11;9.52;;;4.40;;
10319;SDS011;5205;52.168;5.420;2023-12-14T11:12:51;7.47;;;4.38;;
10319;SDS011;5205;52.168;5.420;2023-12-14T11:15:18;7.85;;;4.45;;
10319;SDS011;5205;52.168;5.420;2023-12-14T11:20:27;10.43;;;4.38;;
10319;SDS011;5205;52.168;5.420;2023-12-14T11:22:55;10.27;;;4.45;;
10319;SDS011;5205;52.168;5.420;2023-12-14T11:25:23;8.15;;;4.32;;
10319;SDS011;5205;52.168;5.420;2023-12-14T11:27:51;7.60;;;4.38;;
10319;SDS011;5205;52.168;5.420;2023-12-14T11:30:20;7.70;;;4.55;;
10319;SDS011;5205;52.168;5.420;2023-12-14T11:32:48;11.15;;;4.60;;
10319;SDS011;5205;52.168;5.420;2023-12-14T11:35:15;10.77;;;4.28;;
10319;SDS011;5205;52.168;5.420;2023-12-14T11:37:43;7.05;;;4.43;;
10319;SDS011;5205;52.168;5.420;2023-12-14T11:40:10;9.75;;;4.80;;
10319;SDS011;5205;52.168;5.420;2023-12-14T11:42:41;7.53;;;4.75;;
10319;SDS011;5205;52.168;5.420;2023-12-14T11:45:12;10.15;;;4.53;;
10319;SDS011;5205;52.168;5.420;2023-12-14T11:47:39;9.23;;;4.43;;
10319;SDS011;5205;52.168;5.420;2023-12-14T11:50:07;6.53;;;4.20;;
10319;SDS011;5205;52.168;5.420;2023-12-14T11:52:36;9.00;;;4.88;;
10319;SDS011;5205;52.168;5.420;2023-12-14T11:55:03;9.68;;;4.65;;
10319;SDS011;5205;52.168;5.420;2023-12-14T11:57:31;7.07;;;4.40;;
10319;SDS011;5205;52.168;5.420;2023-12-14T11:59:58;10.38;;;4.93;;
10319;SDS011;5205;52.168;5.420;2023-12-14T12:02:27;10.00;;;4.43;;
10319;SDS011;5205;52.168;5.420;2023-12-14T12:04:54;10.73;;;4.88;;
10319;SDS011;5205;52.168;5.420;2023-12-14T12:07:21;11.52;;;4.70;;
10319;SDS011;5205;52.168;5.420;2023-12-14T12:09:48;7.65;;;4.57;;
10319;SDS011;5205;52.168;5.420;2023-12-14T12:12:17;6.65;;;3.83;;
10319;SDS011;5205;52.168;5.420;2023-12-14T12:14:44;7.18;;;4.13;;
10319;SDS011;5205;52.168;5.420;2023-12-14T12:17:11;8.55;;;4.63;;
10319;SDS011;5205;52.168;5.420;2023-12-14T12:19:40;9.45;;;4.78;;
10319;SDS011;5205;52.168;5.420;2023-12-14T12:22:08;13.57;;;6.40;;
10319;SDS011;5205;52.168;5.420;2023-12-14T12:24:35;7.15;;;4.38;;
10319;SDS011;5205;52.168;5.420;2023-12-14T12:27:02;8.55;;;4.57;;
10319;SDS011;5205;52.168;5.420;2023-12-14T12:29:30;9.38;;;4.80;;
10319;SDS011;5205;52.168;5.420;2023-12-14T12:31:57;7.22;;;4.63;;
10319;SDS011;5205;52.168;5.420;2023-12-14T12:34:25;10.55;;;4.80;;
10319;SDS011;5205;52.168;5.420;2023-12-14T12:36:54;10.07;;;4.60;;
10319;SDS011;5205;52.168;5.420;2023-12-14T12:39:22;8.00;;;4.70;;
10319;SDS011;5205;52.168;5.420;2023-12-14T12:41:49;10.27;;;4.95;;
10319;SDS011;5205;52.168;5.420;2023-12-14T12:44:16;9.27;;;4.82;;
10319;SDS011;5205;52.168;5.420;2023-12-14T12:46:43;9.25;;;5.15;;
10319;SDS011;5205;52.168;5.420;2023-12-14T12:49:11;7.80;;;4.32;;
10319;SDS011;5205;52.168;5.420;2023-12-14T12:51:38;9.05;;;4.25;;
10319;SDS011;5205;52.168;5.420;2023-12-14T12:54:06;7.00;;;4.03;;
10319;SDS011;5205;52.168;5.420;2023-12-14T12:56:33;8.00;;;4.18;;
10319;SDS011;5205;52.168;5.420;2023-12-14T12:59:00;6.95;;;4.15;;
10319;SDS011;5205;52.168;5.420;2023-12-14T13:01:29;7.00;;;4.15;;
10319;SDS011;5205;52.168;5.420;2023-12-14T13:03:56;7.72;;;4.97;;
10319;SDS011;5205;52.168;5.420;2023-12-14T13:06:24;7.85;;;4.30;;
10319;SDS011;5205;52.168;5.420;2023-12-14T13:08:51;10.15;;;4.55;;
10319;SDS011;5205;52.168;5.420;2023-12-14T13:11:20;7.22;;;4.45;;
10319;SDS011;5205;52.168;5.420;2023-12-14T13:13:47;7.32;;;4.03;;
10319;SDS011;5205;52.168;5.420;2023-12-14T13:16:15;8.80;;;3.75;;
10319;SDS011;5205;52.168;5.420;2023-12-14T13:18:42;7.30;;;4.28;;
10319;SDS011;5205;52.168;5.420;2023-12-14T13:21:10;6.15;;;3.58;;
10319;SDS011;5205;52.168;5.420;2023-12-14T13:23:37;7.15;;;3.53;;
10319;SDS011;5205;52.168;5.420;2023-12-14T13:26:05;6.03;;;3.30;;
10319;SDS011;5205;52.168;5.420;2023-12-14T13:28:34;6.72;;;3.20;;
10319;SDS011;5205;52.168;5.420;2023-12-14T13:31:01;5.10;;;3.03;;
10319;SDS011;5205;52.168;5.420;2023-12-14T13:33:29;7.63;;;3.28;;
10319;SDS011;5205;52.168;5.420;2023-12-14T13:35:56;7.90;;;2.90;;
10319;SDS011;5205;52.168;5.420;2023-12-14T13:38:23;5.32;;;3.03;;
10319;SDS011;5205;52.168;5.420;2023-12-14T13:40:50;6.40;;;3.15;;
10319;SDS011;5205;52.168;5.420;2023-12-14T13:43:16;5.55;;;2.92;;
10319;SDS011;5205;52.168;5.420;2023-12-14T13:45:45;5.13;;;3.25;;
10319;SDS011;5205;52.168;5.420;2023-12-14T13:48:12;6.32;;;2.72;;
10319;SDS011;5205;52.168;5.420;2023-12-14T13:50:39;6.38;;;3.20;;
10319;SDS011;5205;52.168;5.420;2023-12-14T13:53:07;5.53;;;3.22;;
10319;SDS011;5205;52.168;5.420;2023-12-14T13:55:34;6.60;;;3.00;;
10319;SDS011;5205;52.168;5.420;2023-12-14T13:58:01;6.53;;;3.17;;
10319;SDS011;5205;52.168;5.420;2023-12-14T14:00:28;8.88;;;3.65;;
10319;SDS011;5205;52.168;5.420;2023-12-14T14:02:57;7.97;;;3.33;;
10319;SDS011;5205;52.168;5.420;2023-12-14T14:05:24;7.25;;;3.38;;
10319;SDS011;5205;52.168;5.420;2023-12-14T14:07:51;6.38;;;3.45;;
10319;SDS011;5205;52.168;5.420;2023-12-14T14:10:18;6.80;;;3.35;;
10319;SDS011;5205;52.168;5.420;2023-12-14T14:12:46;5.28;;;3.03;;
10319;SDS011;5205;52.168;5.420;2023-12-14T14:15:13;6.03;;;3.33;;
10319;SDS011;5205;52.168;5.420;2023-12-14T14:17:40;5.82;;;3.05;;
10319;SDS011;5205;52.168;5.420;2023-12-14T14:20:08;5.47;;;2.95;;
10319;SDS011;5205;52.168;5.420;2023-12-14T14:22:36;6.43;;;3.65;;
10319;SDS011;5205;52.168;5.420;2023-12-14T14:25:04;6.45;;;3.65;;
10319;SDS011;5205;52.168;5.420;2023-12-14T14:27:32;5.80;;;3.55;;
10319;SDS011;5205;52.168;5.420;2023-12-14T14:29:59;6.10;;;3.78;;
10319;SDS011;5205;52.168;5.420;2023-12-14T14:32:26;7.15;;;3.30;;
10319;SDS011;5205;52.168;5.420;2023-12-14T14:34:53;7.78;;;3.65;;
10319;SDS011;5205;52.168;5.420;2023-12-14T14:37:24;8.30;;;3.75;;
10319;SDS011;5205;52.168;5.420;2023-12-14T14:39:51;5.82;;;3.20;;
10319;SDS011;5205;52.168;5.420;2023-12-14T14:42:18;9.32;;;3.63;;
10319;SDS011;5205;52.168;5.420;2023-12-14T14:44:45;6.50;;;3.70;;
10319;SDS011;5205;52.168;5.420;2023-12-14T14:47:12;7.18;;;4.00;;
10319;SDS011;5205;52.168;5.420;2023-12-14T14:49:39;9.45;;;3.92;;
10319;SDS011;5205;52.168;5.420;2023-12-14T14:52:06;9.82;;;3.65;;
10319;SDS011;5205;52.168;5.420;2023-12-14T14:54:35;9.18;;;4.03;;
10319;SDS011;5205;52.168;5.420;2023-12-14T14:57:02;7.70;;;4.20;;
10319;SDS011;5205;52.168;5.420;2023-12-14T14:59:30;8.13;;;4.28;;
10319;SDS011;5205;52.168;5.420;2023-12-14T15:01:57;10.90;;;4.90;;
10319;SDS011;5205;52.168;5.420;2023-12-14T15:04:26;8.00;;;4.20;;
10319;SDS011;5205;52.168;5.420;2023-12-14T15:06:53;8.30;;;4.28;;
10319;SDS011;5205;52.168;5.420;2023-12-14T15:09:20;12.05;;;5.47;;
10319;SDS011;5205;52.168;5.420;2023-12-14T15:11:49;11.55;;;5.55;;
10319;SDS011;5205;52.168;5.420;2023-12-14T15:14:16;10.48;;;4.82;;
10319;SDS011;5205;52.168;5.420;2023-12-14T15:16:43;9.45;;;4.93;;
10319;SDS011;5205;52.168;5.420;2023-12-14T15:19:10;11.77;;;5.03;;
10319;SDS011;5205;52.168;5.420;2023-12-14T15:21:37;11.50;;;5.57;;
10319;SDS011;5205;52.168;5.420;2023-12-14T15:24:05;11.32;;;4.88;;
10319;SDS011;5205;52.168;5.420;2023-12-14T15:26:32;9.15;;;5.22;;
10319;SDS011;5205;52.168;5.420;2023-12-14T15:29:01;10.27;;;5.85;;
10319;SDS011;5205;52.168;5.420;2023-12-14T15:31:28;15.98;;;6.07;;
10319;SDS011;5205;52.168;5.420;2023-12-14T15:33:55;11.20;;;5.65;;
10319;SDS011;5205;52.168;5.420;2023-12-14T15:36:22;12.07;;;5.43;;
10319;SDS011;5205;52.168;5.420;2023-12-14T15:38:49;10.23;;;5.60;;
10319;SDS011;5205;52.168;5.420;2023-12-14T15:41:17;11.60;;;5.50;;
10319;SDS011;5205;52.168;5.420;2023-12-14T15:43:44;9.80;;;5.28;;
10319;SDS011;5205;52.168;5.420;2023-12-14T15:46:12;10.50;;;5.75;;
10319;SDS011;5205;52.168;5.420;2023-12-14T15:48:39;11.25;;;5.15;;
10319;SDS011;5205;52.168;5.420;2023-12-14T15:51:07;10.13;;;5.13;;
10319;SDS011;5205;52.168;5.420;2023-12-14T15:53:34;8.73;;;5.00;;
10319;SDS011;5205;52.168;5.420;2023-12-14T15:56:02;11.75;;;5.40;;
10319;SDS011;5205;52.168;5.420;2023-12-14T15:58:29;9.38;;;5.32;;
10319;SDS011;5205;52.168;5.420;2023-12-14T16:00:56;8.43;;;4.75;;
10319;SDS011;5205;52.168;5.420;2023-12-14T16:03:24;10.05;;;5.68;;
10319;SDS011;5205;52.168;5.420;2023-12-14T16:05:51;12.85;;;6.20;;
10319;SDS011;5205;52.168;5.420;2023-12-14T16:08:19;13.70;;;5.70;;
10319;SDS011;5205;52.168;5.420;2023-12-14T16:10:46;12.20;;;5.53;;
10319;SDS011;5205;52.168;5.420;2023-12-14T16:13:16;9.07;;;5.55;;
10319;SDS011;5205;52.168;5.420;2023-12-14T16:15:43;9.05;;;5.55;;
10319;SDS011;5205;52.168;5.420;2023-12-14T16:18:10;14.00;;;6.85;;
10319;SDS011;5205;52.168;5.420;2023-12-14T16:20:39;11.80;;;6.13;;
10319;SDS011;5205;52.168;5.420;2023-12-14T16:23:06;11.70;;;5.55;;
10319;SDS011;5205;52.168;5.420;2023-12-14T16:25:34;11.85;;;6.00;;
10319;SDS011;5205;52.168;5.420;2023-12-14T16:30:28;10.55;;;5.95;;
10319;SDS011;5205;52.168;5.420;2023-12-14T16:32:55;12.20;;;5.93;;
10319;SDS011;5205;52.168;5.420;2023-12-14T16:35:22;13.23;;;7.25;;
10319;SDS011;5205;52.168;5.420;2023-12-14T16:37:51;11.55;;;6.05;;
10319;SDS011;5205;52.168;5.420;2023-12-14T16:40:18;14.02;;;7.82;;
10319;SDS011;5205;52.168;5.420;2023-12-14T16:45:12;10.90;;;5.72;;
10319;SDS011;5205;52.168;5.420;2023-12-14T16:47:39;11.98;;;6.47;;
10319;SDS011;5205;52.168;5.420;2023-12-14T16:50:07;12.00;;;6.90;;
10319;SDS011;5205;52.168;5.420;2023-12-14T16:52:36;13.27;;;6.75;;
10319;SDS011;5205;52.168;5.420;2023-12-14T16:55:05;15.68;;;7.38;;
10319;SDS011;5205;52.168;5.420;2023-12-14T16:57:34;18.02;;;9.07;;
10319;SDS011;5205;52.168;5.420;2023-12-14T17:00:02;15.90;;;7.97;;
10319;SDS011;5205;52.168;5.420;2023-12-14T17:02:29;13.68;;;7.38;;
10319;SDS011;5205;52.168;5.420;2023-12-14T17:04:56;15.20;;;8.10;;
10319;SDS011;5205;52.168;5.420;2023-12-14T17:07:24;16.42;;;7.63;;
10319;SDS011;5205;52.168;5.420;2023-12-14T17:09:51;15.20;;;7.50;;
10319;SDS011;5205;52.168;5.420;2023-12-14T17:12:19;14.48;;;7.18;;
10319;SDS011;5205;52.168;5.420;2023-12-14T17:14:46;17.05;;;6.95;;
10319;SDS011;5205;52.168;5.420;2023-12-14T17:17:14;18.98;;;9.57;;
10319;SDS011;5205;52.168;5.420;2023-12-14T17:19:41;17.95;;;7.85;;
10319;SDS011;5205;52.168;5.420;2023-12-14T17:24:35;15.80;;;7.32;;
10319;SDS011;5205;52.168;5.420;2023-12-14T17:29:30;22.17;;;10.68;;
10319;SDS011;5205;52.168;5.420;2023-12-14T17:31:57;18.52;;;8.18;;
10319;SDS011;5205;52.168;5.420;2023-12-14T17:34:24;18.08;;;9.15;;
10319;SDS011;5205;52.168;5.420;2023-12-14T17:36:51;21.40;;;9.40;;
10319;SDS011;5205;52.168;5.420;2023-12-14T17:39:19;15.60;;;7.22;;
10319;SDS011;5205;52.168;5.420;2023-12-14T17:41:46;18.73;;;9.85;;
10319;SDS011;5205;52.168;5.420;2023-12-14T17:44:13;16.83;;;8.32;;
10319;SDS011;5205;52.168;5.420;2023-12-14T17:46:41;18.75;;;9.45;;